Time;durP1;ratioP1;P1;durP2;ratioP2;P2;SDS_P1;SDS_P2;PMS_P1;PMS_P2;Temp;Humidity;BMP_temperature;BMP_pressure;BME280_temperature;BME280_humidity;BME280_pressure;Samples;Min_cycle;Max_cycle;Signal;HPM_P1;HPM_P2
2022/04/22 00:01:16;;;;;;;;;;;;;;;17.83;42.53;100697.54;102272;1335;61350;-82
2022/04/22 00:04:38;;;;;;;;;;;;;;;;;;;;;
2022/04/22 00:07:27;;;;;;;;;;;;;;;17.82;42.55;100690.08;102041;1338;73920;-79
2022/04/22 00:10:27;;;;;;;;;;;;;;;17.82;42.57;100685.45;101932;1338;61379;-79
2022/04/22 00:13:23;;;;;;;;;;;;;;;;;;;;;
2022/04/22 00:16:25;;;;;;;;;;;;;;;;;;;;;
2022/04/22 00:19:42;;;;;;;;;;;;;;;;;;;;;
2022/04/22 00:22:37;;;;;;;;;;;;;;;17.81;42.48;100683.91;101739;1344;61435;-84
2022/04/22 00:25:40;;;;;;;;;;;;;;;17.81;42.50;100681.95;101862;1338;61844;-85
2022/04/22 00:28:46;;;;;;;;;;;;;;;17.82;42.46;100691.20;102120;1335;74125;-83
2022/04/22 00:31:42;;;;;;;;;;;;;;;;;;;;;
2022/04/22 00:37:50;;;;;;;;;;;;;;;;;;;;;
2022/04/22 00:41:28;;;;;;;;;;;;;;;17.81;42.55;100689.66;101638;1346;73901;-81
2022/04/22 00:44:16;;;;;;;;;;;;;;;17.80;42.50;100686.80;101622;1345;76550;-82
2022/04/22 00:47:25;;;;;;;;;;;;;;;17.80;42.58;100688.05;101600;1342;61350;-82
2022/04/22 00:50:39;;;;;;;;;;;;;;;;;;;;;
2022/04/22 00:53:57;;;;;;;;;;;;;;;17.80;42.49;100688.59;102063;1335;72985;-81
2022/04/22 00:56:55;;;;;;;;;;;;;;;;;;;;;
2022/04/22 01:03:15;;;;;;;;;;;;;;;17.81;42.52;100695.35;101738;1344;61357;-82
2022/04/22 01:13:12;;;;;;;;;;;;;;;;;;;;;
2022/04/22 01:16:24;;;;;;;;;;;;;;;;;;;;;
2022/04/22 01:23:41;;;;;;;;;;;;;;;17.79;42.49;100697.57;101118;1353;72686;-81
2022/04/22 01:26:44;;;;;;;;;;;;;;;17.80;42.57;100697.35;101362;1351;61572;-84
2022/04/22 01:32:49;;;;;;;;;;;;;;;;;;;;;
2022/04/22 01:35:58;;;;;;;;;;;;;;;17.79;42.55;100700.77;100680;1358;76287;-82
2022/04/22 01:39:35;;;;;;;;;;;;;;;;;;;;;
2022/04/22 01:42:12;;;;;;;;;;;;;;;17.80;42.60;100697.88;101279;1352;61370;-84
2022/04/22 01:45:18;;;;;;;;;;;;;;;17.80;42.55;100694.17;101368;1351;74383;-85
2022/04/22 01:48:34;;;;;;;;;;;;;;;;;;;;;
2022/04/22 01:52:13;;;;;;;;;;;;;;;17.79;42.56;100684.93;101485;1352;61228;-83
2022/04/22 01:54:56;;;;;;;;;;;;;;;;;;;;;
2022/04/22 01:57:54;;;;;;;;;;;;;;;;;;;;;
2022/04/22 02:01:50;;;;;;;;;;;;;;;17.79;42.53;100672.69;101617;1347;74676;-80
2022/04/22 02:04:26;;;;;;;;;;;;;;;17.79;42.52;100673.75;101395;1351;61289;-86
2022/04/22 02:07:42;;;;;;;;;;;;;;;;;;;;;
2022/04/22 02:10:58;;;;;;;;;;;;;;;17.79;42.65;100663.24;101020;1355;71689;-83
2022/04/22 02:17:37;;;;;;;;;;;;;;;;;;;;;
2022/04/22 02:20:44;;;;;;;;;;;;;;;17.79;42.60;100657.91;100895;1355;61371;-83
2022/04/22 02:23:40;;;;;;;;;;;;;;;;;;;;;
2022/04/22 02:33:03;;;;;;;;;;;;;;;17.77;42.58;100648.73;101403;1351;61412;-85
2022/04/22 02:36:54;;;;;;;;;;;;;;;17.77;42.61;100645.87;100946;1356;72465;-83
2022/04/22 02:45:26;;;;;;;;;;;;;;;17.78;42.71;100641.77;100674;1357;74687;-80
2022/04/22 02:46:42;;;;;;;;;;;;;;;17.77;42.65;100645.16;101122;1353;61394;-79
2022/04/22 02:49:47;;;;;;;;;;;;;;;;;;;;;
2022/04/22 02:53:13;;;;;;;;;;;;;;;;;;;;;
2022/04/22 02:56:09;;;;;;;;;;;;;;;17.77;42.71;100656.94;101072;1354;61276;-83
2022/04/22 02:59:10;;;;;;;;;;;;;;;;;;;;;
2022/04/22 03:02:20;;;;;;;;;;;;;;;;;;;;;
2022/04/22 03:05:48;;;;;;;;;;;;;;;17.76;42.75;100666.22;100484;1359;73671;-84
2022/04/22 03:08:43;;;;;;;;;;;;;;;;;;;;;
2022/04/22 03:11:34;;;;;;;;;;;;;;;17.76;42.72;100660.88;101646;1347;62152;-87
2022/04/22 03:15:08;;;;;;;;;;;;;;;17.76;42.69;100657.88;101837;1340;74111;-82
2022/04/22 03:18:08;;;;;;;;;;;;;;;;;;;;;
2022/04/22 03:21:24;;;;;;;;;;;;;;;17.75;42.67;100666.64;102090;1338;61779;-84
2022/04/22 03:24:40;;;;;;;;;;;;;;;17.75;42.69;100657.90;102132;1337;61564;-83
2022/04/22 03:27:07;;;;;;;;;;;;;;;17.75;42.69;100656.33;101863;1341;72803;-84
2022/04/22 03:30:34;;;;;;;;;;;;;;;17.75;42.67;100663.44;102001;1335;74841;-85
2022/04/22 03:33:23;;;;;;;;;;;;;;;;;;;;;
2022/04/22 03:36:50;;;;;;;;;;;;;;;17.74;42.69;100667.03;101873;1340;61485;-91
2022/04/22 03:39:38;;;;;;;;;;;;;;;17.74;42.68;100665.27;101765;1340;72971;-84
2022/04/22 03:43:29;;;;;;;;;;;;;;;17.74;42.71;100659.77;101687;1345;73955;-81
2022/04/22 03:49:06;;;;;;;;;;;;;;;;;;;;;
2022/04/22 03:52:03;;;;;;;;;;;;;;;17.74;42.70;100655.49;100609;1358;72931;-82
2022/04/22 03:55:54;;;;;;;;;;;;;;;17.74;42.72;100655.17;101082;1354;76574;-84
2022/04/22 03:58:42;;;;;;;;;;;;;;;;;;;;;
2022/04/22 04:01:49;;;;;;;;;;;;;;;;;;;;;
2022/04/22 04:05:00;;;;;;;;;;;;;;;17.73;42.79;100663.54;100969;1352;72925;-83
2022/04/22 04:07:56;;;;;;;;;;;;;;;17.74;42.77;100665.66;101297;1352;75891;-83
2022/04/22 04:18:09;;;;;;;;;;;;;;;;;;;;;
2022/04/22 04:24:55;;;;;;;;;;;;;;;;;;;;;
2022/04/22 04:27:59;;;;;;;;;;;;;;;17.73;42.89;100657.13;101572;1348;61701;-82
2022/04/22 04:30:46;;;;;;;;;;;;;;;17.73;42.79;100659.09;101408;1351;73131;-84
2022/04/22 04:34:04;;;;;;;;;;;;;;;17.73;42.78;100663.19;101421;1352;75206;-85
2022/04/22 04:36:49;;;;;;;;;;;;;;;17.73;42.73;100665.33;100866;1357;61383;-83
2022/04/22 04:39:37;;;;;;;;;;;;;;;;;;;;;
2022/04/22 04:43:39;;;;;;;;;;;;;;;17.73;42.69;100676.36;100498;1360;71532;-89
2022/04/22 04:46:17;;;;;;;;;;;;;;;17.73;42.71;100675.28;100256;1361;75659;-87
2022/04/22 04:49:03;;;;;;;;;;;;;;;;;;;;;
2022/04/22 04:52:18;;;;;;;;;;;;;;;;;;;;;
2022/04/22 04:55:21;;;;;;;;;;;;;;;17.73;42.91;100682.58;100299;1361;73972;-83
2022/04/22 04:58:37;;;;;;;;;;;;;;;17.74;42.80;100678.11;99870;1367;73560;-82
2022/04/22 05:01:38;;;;;;;;;;;;;;;;;;;;;
2022/04/22 05:05:00;;;;;;;;;;;;;;;17.74;42.77;100663.86;100484;1355;61445;-81
2022/04/22 05:07:45;;;;;;;;;;;;;;;17.74;42.84;100667.96;101064;1351;72738;-78
2022/04/22 05:10:40;;;;;;;;;;;;;;;17.74;42.77;100676.33;101440;1353;73923;-85
2022/04/22 05:13:37;;;;;;;;;;;;;;;;;;;;;
2022/04/22 05:16:52;;;;;;;;;;;;;;;;;;;;;
2022/04/22 05:20:05;;;;;;;;;;;;;;;17.74;42.76;100665.66;101671;1344;73366;-84
2022/04/22 05:23:01;;;;;;;;;;;;;;;17.73;42.76;100660.67;101829;1338;74955;-84
2022/04/22 05:26:10;;;;;;;;;;;;;;;17.73;42.73;100674.05;102081;1333;61224;-82
2022/04/22 05:33:11;;;;;;;;;;;;;;;;;;;;;
2022/04/22 05:36:06;;;;;;;;;;;;;;;17.74;42.83;100676.30;101924;1335;75903;-83
2022/04/22 05:39:11;;;;;;;;;;;;;;;;;;;;;
2022/04/22 05:45:30;;;;;;;;;;;;;;;17.74;42.73;100673.99;102284;1333;72954;-87
2022/04/22 05:48:28;;;;;;;;;;;;;;;17.74;42.73;100677.20;102267;1334;75938;-86
2022/04/22 05:52:04;;;;;;;;;;;;;;;;;;;;;
2022/04/22 05:54:49;;;;;;;;;;;;;;;17.74;42.75;100696.61;101832;1341;62484;-83
2022/04/22 05:57:34;;;;;;;;;;;;;;;;;;;;;
2022/04/22 06:00:31;;;;;;;;;;;;;;;17.73;42.85;100692.73;102093;1335;74993;-83
2022/04/22 06:03:37;;;;;;;;;;;;;;;17.73;42.83;100689.16;102113;1335;61190;-81
2022/04/22 06:07:27;;;;;;;;;;;;;;;17.73;42.83;100693.27;101712;1344;61555;-83
2022/04/22 06:19:58;;;;;;;;;;;;;;;17.74;42.73;100697.86;101896;1340;62867;-90
2022/04/22 06:23:14;;;;;;;;;;;;;;;;;;;;;
2022/04/22 06:27:01;;;;;;;;;;;;;;;17.74;42.82;100702.86;101649;1348;76276;-85
2022/04/22 06:29:11;;;;;;;;;;;;;;;17.73;42.78;100706.42;101665;1347;61464;-82
2022/04/22 06:31:59;;;;;;;;;;;;;;;17.73;42.79;100708.21;101836;1342;61829;-80
2022/04/22 06:35:15;;;;;;;;;;;;;;;;;;;;;
2022/04/22 06:38:25;;;;;;;;;;;;;;;17.73;42.76;100711.27;101704;1344;75926;-82
2022/04/22 06:48:20;;;;;;;;;;;;;;;17.72;42.88;100721.30;101567;1348;73070;-85
2022/04/22 06:51:16;;;;;;;;;;;;;;;17.72;42.91;100722.02;96820;1353;5905811;-78
2022/04/22 06:54:20;;;;;;;;;;;;;;;17.71;42.80;100727.94;100366;1359;61294;-86
2022/04/22 06:57:29;;;;;;;;;;;;;;;17.71;42.80;100729.17;100639;1358;61233;-86
2022/04/22 07:00:35;;;;;;;;;;;;;;;17.71;42.82;100726.70;100420;1361;73120;-79
2022/04/22 07:03:41;;;;;;;;;;;;;;;17.70;42.77;100729.05;100662;1354;75051;-81
2022/04/22 07:06:42;;;;;;;;;;;;;;;;;;;;;
2022/04/22 07:09:37;;;;;;;;;;;;;;;17.70;42.80;100735.66;101331;1352;61257;-84
2022/04/22 07:19:31;;;;;;;;;;;;;;;17.71;43.01;100736.88;101130;1354;60866;-82
2022/04/22 07:22:45;;;;;;;;;;;;;;;17.70;42.83;100733.89;100632;1357;61355;-82
2022/04/22 07:25:50;;;;;;;;;;;;;;;;;;;;;
2022/04/22 07:29:09;;;;;;;;;;;;;;;17.70;43.03;100729.05;100977;1354;75039;-87
2022/04/22 07:32:17;;;;;;;;;;;;;;;17.70;42.96;100731.02;101632;1345;61335;-82
2022/04/22 07:35:23;;;;;;;;;;;;;;;17.70;42.95;100727.11;101468;1349;61319;-84
2022/04/22 07:39:15;;;;;;;;;;;;;;;17.71;43.04;100722.64;101626;1346;71599;-85
2022/04/22 07:42:21;;;;;;;;;;;;;;;17.71;43.00;100717.30;100410;1361;76617;-82
2022/04/22 07:51:56;;;;;;;;;;;;;;;;;;;;;
2022/04/22 07:54:55;;;;;;;;;;;;;;;17.71;43.05;100713.36;101104;1354;75139;-85
2022/04/22 07:58:10;;;;;;;;;;;;;;;;;;;;;
2022/04/22 08:01:26;;;;;;;;;;;;;;;17.71;43.10;100717.27;101465;1351;61848;-84
2022/04/22 08:07:40;;;;;;;;;;;;;;;17.71;43.09;100730.59;101378;1352;75902;-83
2022/04/22 08:10:39;;;;;;;;;;;;;;;;;;;;;
2022/04/22 08:13:48;;;;;;;;;;;;;;;17.72;43.13;100728.26;101513;1348;61238;-85
2022/04/22 08:16:36;;;;;;;;;;;;;;;17.71;42.98;100733.25;101283;1351;72877;-84
2022/04/22 08:19:46;;;;;;;;;;;;;;;;;;;;;
2022/04/22 08:22:45;;;;;;;;;;;;;;;17.72;43.06;100718.27;101691;1342;61376;-83
2022/04/22 08:26:01;;;;;;;;;;;;;;;;;;;;;
2022/04/22 08:28:47;;;;;;;;;;;;;;;17.71;43.07;100716.39;101832;1341;72884;-85
2022/04/22 08:32:03;;;;;;;;;;;;;;;;;;;;;
2022/04/22 08:34:56;;;;;;;;;;;;;;;17.71;43.10;100701.27;101964;1337;61250;-81
2022/04/22 08:38:07;;;;;;;;;;;;;;;17.71;43.06;100700.36;101880;1335;61267;-82
2022/04/22 08:41:13;;;;;;;;;;;;;;;17.71;43.14;100689.52;102071;1335;72835;-81
2022/04/22 08:44:27;;;;;;;;;;;;;;;17.71;43.16;100685.05;102052;1337;75359;-86
2022/04/22 08:50:46;;;;;;;;;;;;;;;17.71;43.22;100677.58;102248;1329;61217;-83
2022/04/22 08:53:41;;;;;;;;;;;;;;;17.70;43.11;100676.54;102897;1322;72740;-83
2022/04/22 08:56:36;;;;;;;;;;;;;;;17.71;43.21;100676.70;102828;1323;74707;-83
2022/04/22 09:02:46;;;;;;;;;;;;;;;17.71;43.24;100676.89;102824;1326;62072;-85
2022/04/22 09:06:20;;;;;;;;;;;;;;;17.71;43.19;100664.61;102452;1335;73437;-83
2022/04/22 09:09:12;;;;;;;;;;;;;;;17.71;43.21;100656.05;102479;1332;73733;-85
2022/04/22 09:12:05;;;;;;;;;;;;;;;17.71;43.19;100651.08;102027;1338;61399;-82
2022/04/22 09:15:22;;;;;;;;;;;;;;;;;;;;;
2022/04/22 09:18:08;;;;;;;;;;;;;;;;;;;;;
2022/04/22 09:21:34;;;;;;;;;;;;;;;;;;;;;
2022/04/22 09:24:53;;;;;;;;;;;;;;;;;;;;;
2022/04/22 09:28:07;;;;;;;;;;;;;;;17.70;43.28;100633.65;101366;1353;61373;-86
2022/04/22 09:31:17;;;;;;;;;;;;;;;;;;;;;
2022/04/22 09:33:51;;;;;;;;;;;;;;;17.71;43.26;100625.08;100250;1361;75130;-86
2022/04/22 09:44:14;;;;;;;;;;;;;;;17.71;43.28;100617.94;100681;1353;73399;-80
2022/04/22 09:47:10;;;;;;;;;;;;;;;;;;;;;
2022/04/22 09:50:18;;;;;;;;;;;;;;;17.73;43.31;100640.79;101108;1351;61343;-79
2022/04/22 09:53:10;;;;;;;;;;;;;;;17.73;43.25;100634.04;101543;1346;61357;-83
2022/04/22 09:56:45;;;;;;;;;;;;;;;17.73;43.41;100631.66;101339;1350;71866;-85
2022/04/22 09:59:55;;;;;;;;;;;;;;;;;;;;;
2022/04/22 10:03:10;;;;;;;;;;;;;;;17.74;43.37;100639.09;100872;1356;61225;-84
2022/04/22 10:06:27;;;;;;;;;;;;;;;17.75;43.43;100628.94;100692;1356;61740;-83
2022/04/22 10:08:59;;;;;;;;;;;;;;;17.75;43.43;100621.97;100945;1352;73129;-82
2022/04/22 10:11:54;;;;;;;;;;;;;;;17.75;43.43;100620.71;100789;1354;74908;-81
2022/04/22 10:14:55;;;;;;;;;;;;;;;17.75;43.39;100624.27;101122;1353;61494;-78
2022/04/22 10:17:39;;;;;;;;;;;;;;;17.76;43.39;100619.96;100341;1358;61328;-80
2022/04/22 10:20:33;;;;;;;;;;;;;;;17.75;43.41;100616.42;100024;1361;71593;-81
2022/04/22 10:23:58;;;;;;;;;;;;;;;;;;;;;
2022/04/22 10:27:07;;;;;;;;;;;;;;;;;;;;;
2022/04/22 10:30:19;;;;;;;;;;;;;;;17.76;43.46;100618.70;100119;1363;61374;-84
2022/04/22 10:33:24;;;;;;;;;;;;;;;17.76;43.47;100605.52;99672;1367;71674;-80
2022/04/22 10:36:43;;;;;;;;;;;;;;;17.77;43.36;100601.59;100216;1360;74115;-87
2022/04/22 10:39:36;;;;;;;;;;;;;;;17.76;43.43;100593.41;100403;1357;61298;-86
2022/04/22 10:42:58;;;;;;;;;;;;;;;17.78;43.48;100585.17;100831;1352;61506;-80
2022/04/22 10:48:50;;;;;;;;;;;;;;;;;;;;;
2022/04/22 10:52:02;;;;;;;;;;;;;;;;;;;;;
2022/04/22 10:55:23;;;;;;;;;;;;;;;17.78;43.48;100559.52;101727;1340;61620;-89
2022/04/22 10:58:48;;;;;;;;;;;;;;;;;;;;;
2022/04/22 11:02:25;;;;;;;;;;;;;;;17.78;43.59;100549.89;101884;1337;74466;-81
2022/04/22 11:05:19;;;;;;;;;;;;;;;17.78;43.55;100545.42;101823;1340;61264;-81
2022/04/22 11:08:26;;;;;;;;;;;;;;;;;;;;;
2022/04/22 11:11:34;;;;;;;;;;;;;;;;;;;;;
2022/04/22 11:14:50;;;;;;;;;;;;;;;17.79;43.55;100551.96;101649;1343;73535;-81
2022/04/22 11:17:43;;;;;;;;;;;;;;;;;;;;;
2022/04/22 11:21:03;;;;;;;;;;;;;;;17.80;43.73;100546.19;101468;1348;61666;-81
2022/04/22 11:24:15;;;;;;;;;;;;;;;;;;;;;
2022/04/22 11:26:52;;;;;;;;;;;;;;;;;;;;;
2022/04/22 11:29:56;;;;;;;;;;;;;;;17.81;43.57;100537.79;101006;1353;61659;-79
2022/04/22 11:32:59;;;;;;;;;;;;;;;17.81;43.60;100526.20;101274;1353;61310;-81
2022/04/22 11:35:58;;;;;;;;;;;;;;;;;;;;;
2022/04/22 11:39:03;;;;;;;;;;;;;;;17.82;43.79;100532.57;100693;1355;74870;-80
2022/04/22 11:41:58;;;;;;;;;;;;;;;17.82;43.77;100528.64;100308;1361;61365;-83
2022/04/22 11:44:34;;;;;;;;;;;;;;;17.82;43.67;100524.37;100590;1354;61378;-83
2022/04/22 11:47:29;;;;;;;;;;;;;;;17.82;43.76;100527.19;100870;1354;74241;-80
2022/04/22 11:50:16;;;;;;;;;;;;;;;17.83;43.80;100520.20;100891;1354;75966;-86
2022/04/22 11:53:05;;;;;;;;;;;;;;;17.83;43.86;100517.55;101079;1352;61294;-80
2022/04/22 11:55:39;;;;;;;;;;;;;;;17.83;43.81;100513.11;101346;1346;61533;-81
2022/04/22 11:58:16;;;;;;;;;;;;;;;17.83;43.95;100504.72;101422;1346;73899;-80
2022/04/22 12:06:58;;;;;;;;;;;;;;;17.83;43.86;100498.86;101862;1335;61463;-81
2022/04/22 12:09:43;;;;;;;;;;;;;;;17.83;43.92;100500.60;101896;1338;73289;-81
2022/04/22 12:12:41;;;;;;;;;;;;;;;17.83;43.97;100499.36;101892;1337;74908;-81
2022/04/22 12:15:38;;;;;;;;;;;;;;;;;;;;;
2022/04/22 12:18:24;;;;;;;;;;;;;;;17.83;44.06;100479.77;101841;1338;61808;-84
2022/04/22 12:21:31;;;;;;;;;;;;;;;17.84;44.02;100473.52;101938;1338;74039;-86
2022/04/22 12:24:06;;;;;;;;;;;;;;;17.84;44.14;100472.27;101954;1338;74904;-81
2022/04/22 12:26:52;;;;;;;;;;;;;;;17.84;44.07;100470.66;101924;1338;61221;-85
2022/04/22 12:30:01;;;;;;;;;;;;;;;17.85;44.15;100467.77;102134;1332;61296;-86
2022/04/22 12:33:41;;;;;;;;;;;;;;;17.84;44.13;100458.89;101976;1338;71574;-84
2022/04/22 12:36:43;;;;;;;;;;;;;;;17.85;44.09;100467.25;101914;1338;73532;-85
2022/04/22 12:39:35;;;;;;;;;;;;;;;17.85;44.17;100459.21;101845;1342;61233;-83
2022/04/22 12:42:24;;;;;;;;;;;;;;;17.85;44.24;100454.94;101829;1342;61257;-82
2022/04/22 12:55:47;;;;;;;;;;;;;;;;;;;;;
2022/04/22 12:59:04;;;;;;;;;;;;;;;17.86;44.33;100428.88;101280;1352;74124;-86
2022/04/22 13:02:04;;;;;;;;;;;;;;;;;;;;;
2022/04/22 13:05:04;;;;;;;;;;;;;;;17.87;44.31;100436.13;101588;1348;61985;-84
2022/04/22 13:08:21;;;;;;;;;;;;;;;;;;;;;
2022/04/22 13:11:10;;;;;;;;;;;;;;;17.87;44.39;100426.30;101522;1348;73106;-89
2022/04/22 13:14:46;;;;;;;;;;;;;;;;;;;;;
2022/04/22 13:17:24;;;;;;;;;;;;;;;17.87;44.45;100407.45;101705;1343;61487;-83
2022/04/22 13:20:37;;;;;;;;;;;;;;;17.87;44.56;100397.10;101757;1343;61834;-82
2022/04/22 13:23:54;;;;;;;;;;;;;;;;;;;;;
2022/04/22 13:27:00;;;;;;;;;;;;;;;17.86;44.54;100363.31;102503;1331;75011;-84
2022/04/22 13:30:47;;;;;;;;;;;;;;;17.87;44.58;100362.74;102247;1334;62552;-82
2022/04/22 13:33:41;;;;;;;;;;;;;;;;;;;;;
2022/04/22 13:36:31;;;;;;;;;;;;;;;17.87;44.54;100351.17;102675;1329;74069;-84
2022/04/22 13:39:27;;;;;;;;;;;;;;;17.88;44.55;100348.65;102694;1329;74814;-88
2022/04/22 13:42:20;;;;;;;;;;;;;;;;;;;;;
2022/04/22 13:55:38;;;;;;;;;;;;;;;;;;;;;
2022/04/22 13:58:26;;;;;;;;;;;;;;;17.89;44.62;100308.15;102161;1335;60436;-83
2022/04/22 14:01:42;;;;;;;;;;;;;;;;;;;;;
2022/04/22 14:05:00;;;;;;;;;;;;;;;17.90;44.71;100313.79;101867;1341;73595;-87
2022/04/22 14:08:01;;;;;;;;;;;;;;;;;;;;;
2022/04/22 14:11:07;;;;;;;;;;;;;;;;;;;;;
2022/04/22 14:14:24;;;;;;;;;;;;;;;17.91;44.77;100307.88;102561;1332;72872;-83
2022/04/22 14:17:39;;;;;;;;;;;;;;;;;;;;;
2022/04/22 14:20:28;;;;;;;;;;;;;;;17.92;44.98;100301.39;102485;1332;61569;-85
2022/04/22 14:24:19;;;;;;;;;;;;;;;17.92;44.87;100291.08;102149;1335;61217;-82
2022/04/22 14:27:13;;;;;;;;;;;;;;;17.92;44.88;100290.33;102274;1335;73416;-85
2022/04/22 14:33:02;;;;;;;;;;;;;;;17.92;44.83;100251.70;102070;1337;62586;-87
2022/04/22 14:36:53;;;;;;;;;;;;;;;17.92;44.86;100236.59;102550;1326;60159;-84
2022/04/22 14:39:42;;;;;;;;;;;;;;;17.92;44.80;100224.66;102005;1337;71700;-83
2022/04/22 14:42:51;;;;;;;;;;;;;;;17.92;44.95;100222.85;102024;1338;73665;-85
2022/04/22 14:45:58;;;;;;;;;;;;;;;17.92;44.98;100221.09;101971;1338;61303;-83
2022/04/22 14:49:25;;;;;;;;;;;;;;;17.91;44.99;100233.96;102013;1338;61346;-82
2022/04/22 14:52:02;;;;;;;;;;;;;;;;;;;;;
2022/04/22 14:55:28;;;;;;;;;;;;;;;17.91;44.93;100267.09;102001;1338;74697;-83
2022/04/22 14:58:19;;;;;;;;;;;;;;;;;;;;;
2022/04/22 15:01:46;;;;;;;;;;;;;;;17.90;44.96;100234.89;101915;1338;61776;-81
2022/04/22 15:05:03;;;;;;;;;;;;;;;;;;;;;
2022/04/22 15:08:12;;;;;;;;;;;;;;;17.90;44.95;100222.44;101726;1341;75810;-81
2022/04/22 15:10:26;;;;;;;;;;;;;;;17.90;45.01;100222.80;101918;1338;61878;-84
2022/04/22 15:13:45;;;;;;;;;;;;;;;;;;;;;
2022/04/22 15:16:22;;;;;;;;;;;;;;;17.90;45.06;100237.21;102275;1329;72800;-84
2022/04/22 15:26:30;;;;;;;;;;;;;;;17.89;44.99;100184.08;101910;1338;61228;-81
2022/04/22 15:29:20;;;;;;;;;;;;;;;17.89;45.08;100152.57;101647;1341;72921;-81
2022/04/22 15:32:10;;;;;;;;;;;;;;;17.89;45.18;100145.44;101848;1341;75455;-87
2022/04/22 15:35:22;;;;;;;;;;;;;;;17.88;45.12;100149.93;101781;1341;61394;-86
2022/04/22 15:38:20;;;;;;;;;;;;;;;;;;;;;
2022/04/22 15:41:29;;;;;;;;;;;;;;;17.88;45.17;100175.23;101868;1341;73219;-84
2022/04/22 15:52:00;;;;;;;;;;;;;;;17.88;45.11;100185.23;101442;1353;62278;-83
2022/04/22 15:54:53;;;;;;;;;;;;;;;17.88;45.17;100179.53;100892;1356;72324;-81
2022/04/22 16:00:49;;;;;;;;;;;;;;;17.87;45.11;100132.41;100439;1362;61400;-86
2022/04/22 16:07:43;;;;;;;;;;;;;;;17.87;45.20;100150.19;100556;1355;73412;-82
2022/04/22 16:10:24;;;;;;;;;;;;;;;17.87;45.14;100139.02;101062;1355;73209;-84
2022/04/22 16:17:01;;;;;;;;;;;;;;;17.87;45.23;100074.20;101516;1349;61443;-85
2022/04/22 16:20:18;;;;;;;;;;;;;;;;;;;;;
2022/04/22 16:23:55;;;;;;;;;;;;;;;17.87;45.12;100071.02;101867;1339;74957;-83
2022/04/22 16:26:28;;;;;;;;;;;;;;;17.87;45.25;100098.42;102365;1332;61314;-82
2022/04/22 16:29:53;;;;;;;;;;;;;;;;;;;;;
2022/04/22 16:32:53;;;;;;;;;;;;;;;17.87;45.30;100063.19;102089;1338;74301;-87
2022/04/22 16:35:34;;;;;;;;;;;;;;;;;;;;;
2022/04/22 16:38:52;;;;;;;;;;;;;;;17.87;45.25;100056.23;102238;1335;61298;-79
2022/04/22 16:42:10;;;;;;;;;;;;;;;;;;;;;
2022/04/22 16:45:01;;;;;;;;;;;;;;;;;;;;;
2022/04/22 16:48:06;;;;;;;;;;;;;;;17.87;45.29;100080.08;101792;1343;75750;-85
2022/04/22 16:54:40;;;;;;;;;;;;;;;17.87;45.23;100082.05;101685;1348;61542;-86
2022/04/22 16:57:23;;;;;;;;;;;;;;;17.87;45.17;100083.63;101784;1344;74325;-89
2022/04/22 17:00:31;;;;;;;;;;;;;;;17.87;45.23;100084.52;101755;1344;74052;-86
2022/04/22 17:03:30;;;;;;;;;;;;;;;;;;;;;
2022/04/22 17:07:01;;;;;;;;;;;;;;;17.87;45.23;100076.34;101732;1342;61218;-85
2022/04/22 17:09:45;;;;;;;;;;;;;;;17.86;45.38;100076.53;101765;1338;73889;-86
2022/04/22 17:12:52;;;;;;;;;;;;;;;17.87;45.31;100075.07;101858;1341;75170;-89
2022/04/22 17:26:17;;;;;;;;;;;;;;;;;;;;;
2022/04/22 17:29:15;;;;;;;;;;;;;;;;;;;;;
2022/04/22 17:32:30;;;;;;;;;;;;;;;17.86;45.41;100081.07;100700;1354;61612;-85
2022/04/22 17:35:19;;;;;;;;;;;;;;;17.85;45.35;100082.66;100611;1358;72901;-82
2022/04/22 17:38:04;;;;;;;;;;;;;;;;;;;;;
2022/04/22 17:44:47;;;;;;;;;;;;;;;;;;;;;
2022/04/22 17:47:39;;;;;;;;;;;;;;;17.85;45.35;100088.22;100546;1358;74109;-83
2022/04/22 17:50:29;;;;;;;;;;;;;;;;;;;;;
2022/04/22 17:53:11;;;;;;;;;;;;;;;17.85;45.27;100095.56;101056;1352;61345;-83
2022/04/22 17:56:29;;;;;;;;;;;;;;;;;;;;;
2022/04/22 17:59:38;;;;;;;;;;;;;;;17.84;45.38;100097.35;101369;1345;74522;-83
2022/04/22 18:02:20;;;;;;;;;;;;;;;17.84;45.42;100090.27;101491;1349;74831;-82
2022/04/22 18:05:35;;;;;;;;;;;;;;;17.83;45.43;100091.37;101652;1346;61479;-86
2022/04/22 18:08:30;;;;;;;;;;;;;;;17.83;45.46;100104.36;101540;1346;61119;-85
2022/04/22 18:11:45;;;;;;;;;;;;;;;17.84;45.39;100086.71;101729;1345;71532;-86
2022/04/22 18:17:55;;;;;;;;;;;;;;;17.83;45.38;100083.92;101799;1344;61232;-79
2022/04/22 18:21:31;;;;;;;;;;;;;;;;;;;;;
2022/04/22 18:24:06;;;;;;;;;;;;;;;17.82;45.47;100087.20;101564;1344;74215;-83
2022/04/22 18:27:01;;;;;;;;;;;;;;;17.82;45.50;100083.78;101623;1344;74730;-80
2022/04/22 18:29:50;;;;;;;;;;;;;;;17.82;45.59;100080.58;101626;1344;61336;-81
2022/04/22 18:33:35;;;;;;;;;;;;;;;17.82;45.49;100083.81;101736;1344;61427;-83
2022/04/22 18:36:14;;;;;;;;;;;;;;;17.82;45.57;100090.55;101738;1341;71669;-83
2022/04/22 18:39:14;;;;;;;;;;;;;;;17.82;45.56;100084.85;101744;1341;75832;-85
2022/04/22 18:42:20;;;;;;;;;;;;;;;17.82;45.60;100078.46;101907;1338;61366;-82
2022/04/22 18:44:58;;;;;;;;;;;;;;;17.82;45.64;100071.72;102055;1335;61355;-84
2022/04/22 18:48:04;;;;;;;;;;;;;;;17.82;45.54;100072.98;102238;1334;73015;-81
2022/04/22 18:51:20;;;;;;;;;;;;;;;;;;;;;
2022/04/22 18:54:32;;;;;;;;;;;;;;;;;;;;;
2022/04/22 18:57:22;;;;;;;;;;;;;;;17.81;45.65;100062.71;102081;1335;61349;-81
2022/04/22 19:03:38;;;;;;;;;;;;;;;17.81;45.61;100056.67;102417;1335;73605;-85
2022/04/22 19:06:54;;;;;;;;;;;;;;;;;;;;;
2022/04/22 19:10:07;;;;;;;;;;;;;;;17.80;45.73;100043.53;101747;1344;61476;-81
2022/04/22 19:13:03;;;;;;;;;;;;;;;17.80;45.79;100036.96;101595;1347;73926;-88
2022/04/22 19:15:54;;;;;;;;;;;;;;;;;;;;;
2022/04/22 19:19:15;;;;;;;;;;;;;;;;;;;;;
2022/04/22 19:22:05;;;;;;;;;;;;;;;17.80;45.76;100027.70;101637;1347;61378;-85
2022/04/22 19:25:07;;;;;;;;;;;;;;;;;;;;;
2022/04/22 19:27:55;;;;;;;;;;;;;;;17.79;45.70;100020.30;100981;1353;75877;-84
2022/04/22 19:31:11;;;;;;;;;;;;;;;;;;;;;
2022/04/22 19:34:15;;;;;;;;;;;;;;;;;;;;;
2022/04/22 19:44:24;;;;;;;;;;;;;;;;;;;;;
2022/04/22 19:47:41;;;;;;;;;;;;;;;;;;;;;
2022/04/22 19:50:42;;;;;;;;;;;;;;;;;;;;;
2022/04/22 19:54:33;;;;;;;;;;;;;;;17.78;45.80;99976.21;101545;1348;75149;-86
2022/04/22 20:00:42;;;;;;;;;;;;;;;;;;;;;
2022/04/22 20:03:41;;;;;;;;;;;;;;;;;;;;;
2022/04/22 20:06:53;;;;;;;;;;;;;;;;;;;;;
2022/04/22 20:09:51;;;;;;;;;;;;;;;17.78;45.73;99955.59;100292;1364;62062;-84
2022/04/22 20:13:01;;;;;;;;;;;;;;;17.78;45.91;99954.19;100288;1361;61236;-84
2022/04/22 20:15:45;;;;;;;;;;;;;;;17.77;45.89;99948.48;100792;1358;74009;-85
2022/04/22 20:18:44;;;;;;;;;;;;;;;;;;;;;
2022/04/22 20:21:49;;;;;;;;;;;;;;;;;;;;;
2022/04/22 20:25:01;;;;;;;;;;;;;;;;;;;;;
2022/04/22 20:27:49;;;;;;;;;;;;;;;17.76;45.91;99948.90;101042;1354;72820;-83
2022/04/22 20:31:07;;;;;;;;;;;;;;;;;;;;;
2022/04/22 20:34:02;;;;;;;;;;;;;;;17.76;45.93;99950.54;100919;1354;61372;-85
2022/04/22 20:41:26;;;;;;;;;;;;;;;17.76;45.99;99953.55;101631;1342;71705;-87
2022/04/22 20:44:16;;;;;;;;;;;;;;;;;;;;;
2022/04/22 20:47:15;;;;;;;;;;;;;;;;;;;;;
2022/04/22 20:50:31;;;;;;;;;;;;;;;17.76;46.01;99955.52;101870;1341;61310;-85
2022/04/22 20:57:22;;;;;;;;;;;;;;;17.75;46.06;99965.70;101689;1347;72516;-81
2022/04/22 21:00:29;;;;;;;;;;;;;;;;;;;;;
2022/04/22 21:04:09;;;;;;;;;;;;;;;17.75;46.03;99971.77;101756;1343;62061;-85
2022/04/22 21:06:51;;;;;;;;;;;;;;;;;;;;;
2022/04/22 21:09:53;;;;;;;;;;;;;;;;;;;;;
2022/04/22 21:12:58;;;;;;;;;;;;;;;17.75;46.02;99962.89;102587;1332;61259;-85
2022/04/22 21:16:05;;;;;;;;;;;;;;;17.75;46.11;99961.42;102510;1332;61237;-83
2022/04/22 21:19:16;;;;;;;;;;;;;;;17.75;46.21;99964.86;102731;1329;71561;-84
2022/04/22 21:22:42;;;;;;;;;;;;;;;17.75;46.18;99962.17;102713;1329;75737;-83
2022/04/22 21:25:46;;;;;;;;;;;;;;;;;;;;;
2022/04/22 21:29:17;;;;;;;;;;;;;;;17.74;46.14;99954.20;102280;1334;61447;-81
2022/04/22 21:31:55;;;;;;;;;;;;;;;17.75;46.23;99946.73;102751;1329;74074;-82
2022/04/22 21:35:01;;;;;;;;;;;;;;;17.74;46.26;99945.48;102751;1328;77635;-81
2022/04/22 21:38:38;;;;;;;;;;;;;;;17.74;46.21;99948.16;102730;1329;61376;-85
2022/04/22 21:41:42;;;;;;;;;;;;;;;17.74;46.23;99948.02;102375;1334;61442;-82
2022/04/22 21:44:04;;;;;;;;;;;;;;;17.74;46.12;99955.14;102373;1334;73060;-79
2022/04/22 21:47:19;;;;;;;;;;;;;;;17.74;46.29;99952.84;102366;1335;73533;-81
2022/04/22 21:50:42;;;;;;;;;;;;;;;17.74;46.18;99952.66;102109;1338;61405;-86
2022/04/22 21:53:33;;;;;;;;;;;;;;;17.73;46.11;99951.27;101889;1341;61243;-87
2022/04/22 21:57:04;;;;;;;;;;;;;;;17.73;46.20;99953.04;101881;1341;73697;-79
2022/04/22 21:59:59;;;;;;;;;;;;;;;;;;;;;